Time;durP1;ratioP1;P1;durP2;ratioP2;P2;SDS_P1;SDS_P2;PMS_P1;PMS_P2;Temp;Humidity;BMP_temperature;BMP_pressure;BME280_temperature;BME280_humidity;BME280_pressure;Samples;Min_cycle;Max_cycle;Signal;HPM_P1;HPM_P2
2020/12/15 00:01:58;;;;;;;96.90;33.45;;;2.60;82.20;;;;;;5114526;28;20024;-39
2020/12/15 00:04:26;;;;;;;108.47;36.90;;;2.60;82.30;;;;;;5114557;28;20406;-39
2020/12/15 00:06:52;;;;;;;109.45;37.55;;;2.60;82.30;;;;;;5113336;28;20053;-38
2020/12/15 00:09:18;;;;;;;93.47;35.95;;;2.60;82.40;;;;;;5114395;28;20024;-38
2020/12/15 00:11:43;;;;;;;98.13;35.17;;;2.60;82.40;;;;;;5114311;28;20425;-38
2020/12/15 00:14:09;;;;;;;110.93;41.03;;;2.60;82.60;;;;;;5114691;28;20031;-37
2020/12/15 00:16:35;;;;;;;120.50;40.95;;;2.60;82.60;;;;;;5115523;28;20040;-40
2020/12/15 00:19:01;;;;;;;87.60;36.47;;;2.60;82.60;;;;;;5116604;28;20547;-39
2020/12/15 00:21:28;;;;;;;118.82;42.90;;;2.60;82.60;;;;;;5116920;28;20098;-39
2020/12/15 00:23:54;;;;;;;82.60;32.50;;;2.60;82.60;;;;;;5116470;28;20039;-38
2020/12/15 00:26:21;;;;;;;136.27;37.92;;;2.60;82.60;;;;;;5115225;28;20019;-38
2020/12/15 00:28:50;;;;;;;110.38;35.10;;;2.70;82.60;;;;;;5116026;28;20032;-38
2020/12/15 00:31:17;;;;;;;85.53;32.03;;;2.70;82.60;;;;;;5116684;28;20051;-38
2020/12/15 00:33:43;;;;;;;103.78;39.38;;;2.70;82.70;;;;;;5115438;28;20050;-39
2020/12/15 00:36:09;;;;;;;124.78;35.83;;;2.70;82.50;;;;;;5115633;28;20036;-40
2020/12/15 00:38:35;;;;;;;89.28;36.78;;;2.70;82.50;;;;;;5116680;28;20333;-38
2020/12/15 00:41:02;;;;;;;83.90;28.88;;;2.70;82.30;;;;;;5116748;28;20023;-39
2020/12/15 00:43:28;;;;;;;100.82;32.80;;;2.70;82.30;;;;;;5117420;28;20020;-39
2020/12/15 00:45:53;;;;;;;83.75;30.35;;;2.70;82.30;;;;;;5116593;28;20708;-39
2020/12/15 00:48:19;;;;;;;101.32;34.13;;;2.70;82.20;;;;;;5116709;28;20016;-39
2020/12/15 00:50:45;;;;;;;77.25;28.48;;;2.70;82.20;;;;;;5116752;28;20375;-39
2020/12/15 00:53:11;;;;;;;75.93;27.60;;;2.70;82.30;;;;;;5116016;28;20061;-38
2020/12/15 00:55:36;;;;;;;100.18;32.83;;;2.70;82.30;;;;;;5116445;28;20027;-36
2020/12/15 00:58:02;;;;;;;147.25;35.80;;;2.70;82.30;;;;;;5114954;28;20035;-36
2020/12/15 01:00:28;;;;;;;117.85;32.75;;;2.70;82.20;;;;;;5116450;28;20031;-36
2020/12/15 01:02:53;;;;;;;89.22;31.38;;;2.70;82.20;;;;;;5116385;28;20031;-39
2020/12/15 01:05:19;;;;;;;115.53;34.58;;;2.70;82.30;;;;;;5117154;28;20030;-37
2020/12/15 01:07:46;;;;;;;83.10;31.55;;;2.70;82.40;;;;;;5115797;28;20047;-39
2020/12/15 01:10:12;;;;;;;85.82;30.45;;;2.70;82.50;;;;;;5115254;28;20448;-37
2020/12/15 01:12:37;;;;;;;74.15;30.80;;;2.70;82.50;;;;;;5115631;28;20024;-38
2020/12/15 01:15:03;;;;;;;80.35;31.30;;;2.70;82.50;;;;;;5116614;28;20341;-37
2020/12/15 01:17:29;;;;;;;82.13;32.50;;;2.70;82.60;;;;;;5116006;28;20035;-38
2020/12/15 01:19:55;;;;;;;76.68;29.38;;;2.70;82.70;;;;;;5116582;28;20332;-37
2020/12/15 01:22:20;;;;;;;74.93;30.55;;;2.70;82.70;;;;;;5116200;28;20024;-38
2020/12/15 01:24:46;;;;;;;84.47;34.30;;;2.70;82.60;;;;;;5116736;28;20034;-37
2020/12/15 01:27:12;;;;;;;79.10;33.63;;;2.70;82.40;;;;;;5116192;28;20024;-39
2020/12/15 01:29:37;;;;;;;66.38;30.45;;;2.80;82.50;;;;;;5116155;28;20034;-37
2020/12/15 01:32:03;;;;;;;84.60;34.70;;;2.70;82.50;;;;;;5116333;28;20078;-37
2020/12/15 01:34:30;;;;;;;73.60;31.52;;;2.70;82.50;;;;;;5116112;28;20530;-37
2020/12/15 01:36:56;;;;;;;69.00;27.50;;;2.80;82.50;;;;;;5115025;28;20322;-38
2020/12/15 01:39:23;;;;;;;72.88;30.23;;;2.70;82.40;;;;;;5116243;28;20445;-38
2020/12/15 01:41:49;;;;;;;76.50;29.48;;;2.80;82.40;;;;;;5115850;28;20027;-37
2020/12/15 01:44:15;;;;;;;91.38;34.70;;;2.70;82.40;;;;;;5116061;28;20032;-36
2020/12/15 01:46:41;;;;;;;81.50;31.10;;;2.80;82.40;;;;;;5117927;28;20181;-38
2020/12/15 01:49:08;;;;;;;72.70;31.52;;;2.80;82.50;;;;;;5119817;28;20329;-37
2020/12/15 01:51:34;;;;;;;61.45;28.33;;;2.80;82.70;;;;;;5118751;28;20028;-37
2020/12/15 01:54:01;;;;;;;69.25;25.65;;;2.80;82.60;;;;;;5118376;28;20046;-37
2020/12/15 01:56:28;;;;;;;66.78;26.08;;;2.80;82.40;;;;;;5118216;28;20047;-37
2020/12/15 01:58:59;;;;;;;74.95;29.58;;;2.80;82.30;;;;;;5118561;28;20291;-37
2020/12/15 02:01:25;;;;;;;;;;;2.80;82.20;;;;;;5118244;28;20524;-37
2020/12/15 02:03:52;;;;;;;58.08;23.45;;;2.80;82.10;;;;;;5118259;28;20002;-37
2020/12/15 02:06:19;;;;;;;60.20;25.55;;;2.80;82.20;;;;;;5117883;28;20426;-37
2020/12/15 02:08:45;;;;;;;59.42;27.15;;;2.80;82.30;;;;;;5118435;28;20023;-37
2020/12/15 02:11:11;;;;;;;55.47;25.13;;;2.70;82.20;;;;;;5119616;28;20046;-37
2020/12/15 02:13:37;;;;;;;74.75;29.88;;;2.70;82.30;;;;;;5119289;28;20024;-37
2020/12/15 02:16:09;;;;;;;62.75;26.25;;;2.70;82.20;;;;;;5119173;28;20034;-37
2020/12/15 02:18:35;;;;;;;60.63;27.45;;;2.70;82.30;;;;;;5119501;28;20032;-37
2020/12/15 02:21:08;;;;;;;64.93;29.20;;;2.70;82.10;;;;;;5119154;28;20356;-38
2020/12/15 02:23:34;;;;;;;80.78;37.50;;;2.70;82.20;;;;;;5119134;28;20023;-37
2020/12/15 02:26:06;;;;;;;71.25;31.00;;;2.70;82.10;;;;;;5119050;28;20517;-38
2020/12/15 02:28:32;;;;;;;79.30;28.00;;;2.70;82.30;;;;;;5118981;27;20063;-37
2020/12/15 02:30:58;;;;;;;67.45;26.50;;;2.70;82.40;;;;;;5118717;28;20081;-37
2020/12/15 02:33:24;;;;;;;59.65;24.30;;;2.70;82.50;;;;;;5119203;28;20035;-37
2020/12/15 02:35:51;;;;;;;62.80;24.85;;;2.70;82.60;;;;;;5117985;28;20028;-38
2020/12/15 02:38:17;;;;;;;87.60;27.98;;;2.70;82.80;;;;;;5118659;28;20334;-38
2020/12/15 02:40:42;;;;;;;73.55;26.17;;;2.80;82.80;;;;;;5118032;27;20027;-37
2020/12/15 02:43:08;;;;;;;75.75;26.20;;;2.80;82.70;;;;;;5118715;28;20355;-37
2020/12/15 02:45:34;;;;;;;76.60;27.45;;;2.80;82.60;;;;;;5118220;28;20038;-37
2020/12/15 02:48:00;;;;;;;76.68;28.15;;;2.80;82.40;;;;;;5118587;28;20345;-39
2020/12/15 02:50:26;;;;;;;66.03;26.25;;;2.80;82.40;;;;;;5119019;28;20437;-37
2020/12/15 02:52:52;;;;;;;56.90;23.65;;;2.80;82.40;;;;;;5118810;28;20027;-38
2020/12/15 02:55:18;;;;;;;75.88;26.15;;;2.80;82.40;;;;;;5118944;28;20020;-37
2020/12/15 02:57:47;;;;;;;67.97;26.33;;;2.80;82.40;;;;;;5117226;28;20471;-39
2020/12/15 03:00:13;;;;;;;74.93;27.88;;;2.80;82.30;;;;;;5117124;28;20023;-38
2020/12/15 03:02:38;;;;;;;56.15;22.13;;;2.80;82.20;;;;;;5117088;28;20099;-39
2020/12/15 03:05:05;;;;;;;68.38;26.50;;;2.80;82.30;;;;;;5115766;28;20028;-38
2020/12/15 03:07:31;;;;;;;60.83;22.42;;;2.80;82.30;;;;;;5116803;28;20080;-39
2020/12/15 03:09:58;;;;;;;72.65;27.58;;;2.80;82.50;;;;;;5115293;28;20059;-38
2020/12/15 03:12:24;;;;;;;75.00;28.55;;;2.90;82.70;;;;;;5116647;28;20038;-38
2020/12/15 03:14:50;;;;;;;62.42;25.92;;;2.80;82.50;;;;;;5117065;28;20031;-38
2020/12/15 03:17:16;;;;;;;73.50;27.35;;;2.80;82.30;;;;;;5115299;28;20349;-39
2020/12/15 03:19:43;;;;;;;63.35;25.35;;;2.80;82.20;;;;;;5114342;28;20035;-39
2020/12/15 03:22:11;;;;;;;77.85;28.00;;;2.80;82.10;;;;;;5115754;28;20019;-42
2020/12/15 03:24:36;;;;;;;59.15;24.40;;;2.80;82.20;;;;;;5113685;28;20069;-42
2020/12/15 03:27:02;;;;;;;57.65;24.40;;;2.80;82.30;;;;;;5114893;28;20096;-42
2020/12/15 03:29:28;;;;;;;63.15;27.42;;;2.80;82.40;;;;;;5115405;28;20028;-42
2020/12/15 03:31:54;;;;;;;74.82;26.83;;;2.80;82.40;;;;;;5115937;28;20050;-41
2020/12/15 03:34:19;;;;;;;68.40;27.70;;;2.80;82.30;;;;;;5116443;28;20303;-41
2020/12/15 03:36:45;;;;;;;63.10;25.52;;;2.80;82.40;;;;;;5116443;27;20035;-41
2020/12/15 03:39:11;;;;;;;71.05;28.45;;;2.80;82.20;;;;;;5116536;28;20035;-42
2020/12/15 03:41:37;;;;;;;56.15;24.10;;;2.80;82.20;;;;;;5115756;28;20307;-42
2020/12/15 03:44:03;;;;;;;59.45;26.60;;;2.90;82.30;;;;;;5116156;28;20036;-41
2020/12/15 03:46:28;;;;;;;76.85;28.95;;;2.80;82.20;;;;;;5118074;27;20031;-41
2020/12/15 03:48:55;;;;;;;73.47;28.23;;;2.90;82.40;;;;;;5117015;28;20027;-41
2020/12/15 03:51:21;;;;;;;54.20;23.85;;;2.80;82.30;;;;;;5117597;28;20024;-38
2020/12/15 03:53:46;;;;;;;58.65;24.55;;;2.90;82.40;;;;;;5117906;28;20092;-38
2020/12/15 03:56:12;;;;;;;60.67;26.00;;;2.80;82.20;;;;;;5115346;28;20446;-39
2020/12/15 03:58:38;;;;;;;54.25;23.45;;;2.80;82.10;;;;;;5115902;28;20019;-37
2020/12/15 04:01:05;;;;;;;55.80;25.08;;;2.90;82.00;;;;;;5117071;28;20072;-39
2020/12/15 04:03:30;;;;;;;59.03;25.15;;;2.90;82.10;;;;;;5115860;28;20023;-38
2020/12/15 04:05:57;;;;;;;66.32;27.52;;;2.90;82.20;;;;;;5112864;28;20489;-40
2020/12/15 04:08:23;;;;;;;65.80;27.00;;;2.90;82.10;;;;;;5115147;28;20016;-38
2020/12/15 04:10:49;;;;;;;64.07;27.90;;;2.90;82.10;;;;;;5115755;28;20070;-38
2020/12/15 04:13:16;;;;;;;67.10;27.90;;;2.90;82.20;;;;;;5115202;28;20028;-38
2020/12/15 04:15:42;;;;;;;63.75;26.33;;;2.90;82.10;;;;;;5115524;28;20364;-38
2020/12/15 04:18:08;;;;;;;71.13;29.15;;;2.90;82.20;;;;;;5115632;28;20035;-40
2020/12/15 04:20:34;;;;;;;57.80;26.60;;;2.90;82.20;;;;;;5116157;28;20391;-38
2020/12/15 04:23:00;;;;;;;69.55;28.35;;;2.90;82.70;;;;;;5116208;28;20022;-39
2020/12/15 04:25:25;;;;;;;70.22;27.50;;;2.90;82.10;;;;;;5117267;28;20060;-38
2020/12/15 04:27:51;;;;;;;65.78;27.48;;;2.80;82.10;;;;;;5117107;28;20110;-39
2020/12/15 04:30:17;;;;;;;76.22;29.52;;;2.80;82.10;;;;;;5117465;28;20429;-37
2020/12/15 04:32:43;;;;;;;68.03;28.70;;;2.80;82.10;;;;;;5116662;28;20138;-38
2020/12/15 04:35:09;;;;;;;66.13;27.83;;;2.80;82.20;;;;;;5117147;28;20054;-38
2020/12/15 04:37:34;;;;;;;64.68;28.02;;;2.80;82.00;;;;;;5116305;28;20426;-39
2020/12/15 04:40:00;;;;;;;63.20;26.33;;;2.80;81.80;;;;;;5117044;28;20031;-38
2020/12/15 04:42:26;;;;;;;63.22;28.60;;;2.80;81.80;;;;;;5117117;28;20019;-42
2020/12/15 04:44:53;;;;;;;60.53;25.58;;;2.80;82.00;;;;;;5117476;28;20032;-38
2020/12/15 04:47:42;;;;;;;66.00;26.90;;;2.80;82.00;;;;;;5117124;28;20110;-38
2020/12/15 04:50:10;;;;;;;81.25;30.98;;;2.80;82.10;;;;;;5117190;28;20024;-38
2020/12/15 04:52:58;;;;;;;59.10;26.13;;;2.80;82.20;;;;;;5116593;28;20094;-38
2020/12/15 04:55:25;;;;;;;54.85;23.48;;;2.80;82.10;;;;;;5117297;28;20120;-38
2020/12/15 04:57:53;;;;;;;75.28;30.23;;;2.80;82.10;;;;;;5116192;28;20042;-38
2020/12/15 05:00:19;;;;;;;64.65;28.02;;;2.80;82.10;;;;;;5116925;28;20035;-38
2020/12/15 05:02:51;;;;;;;55.22;24.52;;;2.80;82.20;;;;;;5116750;28;20329;-38
2020/12/15 05:05:17;;;;;;;62.65;25.98;;;2.80;82.20;;;;;;5116808;28;20028;-37
2020/12/15 05:07:45;;;;;;;64.65;25.83;;;2.80;82.30;;;;;;5116344;28;20437;-39
2020/12/15 05:10:13;;;;;;;58.88;26.52;;;2.80;82.30;;;;;;5116981;28;20054;-38
2020/12/15 05:12:40;;;;;;;59.17;26.65;;;2.90;82.20;;;;;;5116623;28;20024;-38
2020/12/15 05:15:17;;;;;;;65.00;27.25;;;2.90;82.20;;;;;;5116857;28;20032;-38
2020/12/15 05:17:44;;;;;;;57.88;25.98;;;2.90;82.10;;;;;;5116812;28;20036;-38
2020/12/15 05:20:14;;;;;;;58.47;25.40;;;2.90;82.00;;;;;;5117030;28;20032;-38
2020/12/15 05:22:48;;;;;;;59.88;27.45;;;2.90;81.90;;;;;;5120408;28;20027;-38
2020/12/15 05:25:29;;;;;;;65.35;27.05;;;2.90;81.90;;;;;;5119467;28;20038;-38
2020/12/15 05:27:58;;;;;;;68.60;29.65;;;2.90;81.80;;;;;;5119073;28;20554;-38
2020/12/15 05:30:24;;;;;;;61.70;27.13;;;2.90;81.80;;;;;;5119848;27;20028;-38
2020/12/15 05:32:53;;;;;;;73.60;31.08;;;2.80;81.60;;;;;;5119925;28;20318;-38
2020/12/15 05:35:33;;;;;;;75.47;31.30;;;2.80;81.70;;;;;;5120336;28;20314;-38
2020/12/15 05:38:01;;;;;;;57.35;24.95;;;2.80;81.70;;;;;;5120161;28;20085;-38
2020/12/15 05:40:27;;;;;;;70.05;29.60;;;2.80;81.70;;;;;;5120625;28;20032;-38
2020/12/15 05:42:58;;;;;;;59.75;27.73;;;2.80;81.80;;;;;;5119817;28;20337;-39
2020/12/15 05:45:24;;;;;;;69.22;30.92;;;2.80;81.80;;;;;;5119972;27;20031;-38
2020/12/15 05:48:00;;;;;;;62.20;26.23;;;2.80;81.80;;;;;;5119249;28;20028;-38
2020/12/15 05:50:25;;;;;;;59.35;25.88;;;2.80;82.00;;;;;;5099984;28;20031;-38
2020/12/15 05:52:58;;;;;;;64.38;27.25;;;2.70;82.00;;;;;;5099470;28;20046;-39
2020/12/15 05:55:24;;;;;;;70.57;29.05;;;2.80;82.00;;;;;;5102089;28;20130;-39
2020/12/15 05:57:51;;;;;;;63.80;27.67;;;2.70;82.10;;;;;;5118393;28;20189;-39
2020/12/15 06:00:17;;;;;;;57.83;24.92;;;2.80;82.30;;;;;;5117903;28;20091;-38
2020/12/15 06:02:43;;;;;;;52.67;24.38;;;2.80;82.60;;;;;;5118070;28;20027;-42
2020/12/15 06:05:09;;;;;;;56.83;24.05;;;2.80;82.60;;;;;;5116493;28;20031;-42
2020/12/15 06:07:35;;;;;;;54.80;25.15;;;2.80;82.70;;;;;;5116821;28;20019;-42
2020/12/15 06:10:04;;;;;;;54.15;25.50;;;2.90;82.50;;;;;;5116127;28;20039;-39
2020/12/15 06:12:30;;;;;;;69.75;28.30;;;2.90;82.40;;;;;;5096160;28;20112;-39
2020/12/15 06:14:56;;;;;;;67.22;27.50;;;2.90;82.20;;;;;;5113840;28;20020;-38
2020/12/15 06:17:22;;;;;;;62.70;26.80;;;2.90;82.10;;;;;;5096427;28;20039;-39
2020/12/15 06:19:57;;;;;;;69.38;29.70;;;2.90;82.20;;;;;;5114732;28;20043;-38
2020/12/15 06:22:24;;;;;;;60.22;25.13;;;2.90;82.20;;;;;;5116788;28;20012;-39
2020/12/15 06:24:55;;;;;;;59.22;26.80;;;2.90;82.20;;;;;;5116450;28;20397;-39
2020/12/15 06:27:32;;;;;;;55.38;25.40;;;2.90;82.10;;;;;;5116163;28;20103;-39
2020/12/15 06:29:58;;;;;;;64.07;29.25;;;2.90;82.20;;;;;;5117131;28;20031;-38
2020/12/15 06:32:24;;;;;;;65.70;28.95;;;3.00;82.40;;;;;;5116532;28;20116;-39
2020/12/15 06:34:51;;;;;;;61.92;27.63;;;3.00;82.40;;;;;;5117559;28;20035;-38
2020/12/15 06:37:22;;;;;;;50.13;23.80;;;3.00;82.50;;;;;;5117070;28;20031;-39
2020/12/15 06:39:59;;;;;;;63.22;28.00;;;3.00;82.50;;;;;;5117031;28;20027;-39
2020/12/15 06:42:26;;;;;;;61.22;27.88;;;3.10;82.40;;;;;;5116951;28;20031;-39
2020/12/15 06:45:06;;;;;;;71.30;30.20;;;3.10;82.40;;;;;;5118274;28;20088;-38
2020/12/15 06:47:35;;;;;;;54.78;24.83;;;3.10;82.30;;;;;;5117297;27;20039;-43
2020/12/15 06:50:10;;;;;;;55.42;25.48;;;3.10;82.40;;;;;;5116537;28;20058;-39
2020/12/15 06:52:36;;;;;;;52.83;25.08;;;3.20;82.40;;;;;;5116299;28;20326;-38
2020/12/15 06:55:02;;;;;;;65.63;33.33;;;3.20;82.30;;;;;;5117816;28;20483;-38
2020/12/15 06:57:35;;;;;;;60.70;28.15;;;3.20;82.00;;;;;;5116512;28;20127;-37
2020/12/15 07:00:08;;;;;;;53.88;27.13;;;3.30;82.00;;;;;;5116636;28;20032;-38
2020/12/15 07:02:35;;;;;;;71.57;32.42;;;3.20;81.90;;;;;;5115053;28;20024;-38
2020/12/15 07:05:17;;;;;;;76.45;33.42;;;3.30;81.90;;;;;;5115600;28;20027;-39
2020/12/15 07:07:56;;;;;;;55.13;26.63;;;3.30;81.80;;;;;;5114312;28;20056;-39
2020/12/15 07:10:25;;;;;;;63.78;28.30;;;3.20;81.70;;;;;;5115465;28;20084;-38
2020/12/15 07:12:51;;;;;;;60.22;26.13;;;3.20;81.60;;;;;;5112153;28;20058;-41
2020/12/15 07:15:18;;;;;;;55.67;24.17;;;3.20;81.60;;;;;;5115403;28;20425;-41
2020/12/15 07:17:49;;;;;;;51.35;24.60;;;3.20;81.50;;;;;;5115239;28;20380;-41
2020/12/15 07:20:16;;;;;;;60.13;27.23;;;3.20;81.60;;;;;;5117495;27;20031;-40
2020/12/15 07:22:42;;;;;;;68.28;28.40;;;3.20;81.60;;;;;;5116712;28;20193;-41
2020/12/15 07:25:11;;;;;;;68.22;27.13;;;3.30;81.60;;;;;;5115865;28;20122;-41
2020/12/15 07:27:38;;;;;;;63.00;26.13;;;3.30;81.60;;;;;;5115764;28;20011;-41
2020/12/15 07:30:15;;;;;;;69.38;31.63;;;3.30;81.70;;;;;;5115944;28;20031;-41
2020/12/15 07:32:42;;;;;;;67.97;30.90;;;3.30;81.70;;;;;;5114732;28;20042;-40
2020/12/15 07:35:22;;;;;;;72.22;31.27;;;3.30;81.70;;;;;;5115677;28;20031;-41
2020/12/15 07:37:51;;;;;;;81.50;35.78;;;3.30;81.70;;;;;;5113833;28;20051;-41
2020/12/15 07:40:18;;;;;;;130.88;66.50;;;3.30;81.80;;;;;;5114562;28;20104;-41
2020/12/15 07:43:04;;;;;;;77.57;36.15;;;3.30;81.80;;;;;;5114145;28;20026;-41
2020/12/15 07:45:32;;;;;;;73.30;32.75;;;3.30;81.80;;;;;;5112979;28;20020;-41
2020/12/15 07:47:58;;;;;;;72.30;33.65;;;3.30;81.80;;;;;;5113846;28;20028;-41
2020/12/15 07:50:31;;;;;;;68.20;31.60;;;3.30;81.60;;;;;;5116605;28;20030;-41
2020/12/15 07:53:09;;;;;;;78.15;34.13;;;3.30;81.60;;;;;;5116560;28;20028;-41
2020/12/15 07:55:35;;;;;;;74.68;33.90;;;3.40;81.40;;;;;;5116425;28;20024;-40
2020/12/15 07:58:03;;;;;;;75.65;33.85;;;3.40;81.30;;;;;;5115534;28;20093;-41
2020/12/15 08:00:29;;;;;;;76.43;35.50;;;3.40;81.30;;;;;;5115062;28;20118;-41
2020/12/15 08:03:01;;;;;;;74.93;32.80;;;3.40;81.40;;;;;;5114125;27;20035;-41
2020/12/15 08:05:28;;;;;;;97.45;43.85;;;3.40;81.50;;;;;;5115258;28;20050;-41
2020/12/15 08:08:00;;;;;;;71.15;32.92;;;3.40;81.60;;;;;;5114938;28;20020;-41
2020/12/15 08:10:34;;;;;;;67.25;31.60;;;3.40;81.70;;;;;;5116808;28;20398;-41
2020/12/15 08:13:02;;;;;;;71.18;29.75;;;3.40;81.60;;;;;;5114373;28;20041;-41
2020/12/15 08:15:29;;;;;;;63.67;28.20;;;3.50;81.80;;;;;;5115638;28;20031;-40
2020/12/15 08:17:55;;;;;;;63.38;26.95;;;3.50;81.80;;;;;;5115135;28;20043;-40
2020/12/15 08:20:29;;;;;;;65.47;29.63;;;3.50;81.70;;;;;;5116748;28;20038;-40
2020/12/15 08:23:07;;;;;;;69.20;29.77;;;3.50;81.40;;;;;;5114888;28;20040;-41
2020/12/15 08:25:37;;;;;;;68.68;30.23;;;3.50;81.30;;;;;;5115709;28;20310;-37
2020/12/15 08:28:12;;;;;;;67.63;29.90;;;3.60;81.30;;;;;;5112697;28;20429;-38
2020/12/15 08:30:40;;;;;;;56.47;26.30;;;3.60;81.20;;;;;;5114990;28;20294;-42
2020/12/15 08:33:08;;;;;;;60.60;27.58;;;3.60;81.20;;;;;;5115872;28;20040;-38
2020/12/15 08:35:34;;;;;;;63.58;28.20;;;3.60;81.10;;;;;;5114762;28;20448;-41
2020/12/15 08:38:03;;;;;;;59.97;27.83;;;3.60;81.00;;;;;;5113999;28;20039;-41
2020/12/15 08:40:29;;;;;;;57.58;26.48;;;3.60;81.20;;;;;;5115712;28;20433;-40
2020/12/15 08:42:59;;;;;;;62.55;27.88;;;3.60;81.20;;;;;;5114976;28;20031;-40
2020/12/15 08:45:26;;;;;;;56.38;27.02;;;3.70;81.10;;;;;;5114137;28;20152;-41
2020/12/15 08:47:55;;;;;;;52.22;24.80;;;3.70;81.10;;;;;;5112364;28;20490;-41
2020/12/15 08:50:22;;;;;;;48.25;23.88;;;3.70;81.00;;;;;;5113035;28;20011;-39
2020/12/15 08:52:48;;;;;;;54.20;25.83;;;3.80;81.10;;;;;;5113445;28;20024;-41
2020/12/15 08:55:14;;;;;;;50.30;24.33;;;3.70;80.90;;;;;;5115807;28;20023;-41
2020/12/15 08:57:40;;;;;;;44.38;22.77;;;3.80;81.00;;;;;;5117749;28;20047;-40
2020/12/15 09:00:16;;;;;;;53.22;25.08;;;3.80;81.00;;;;;;5118073;28;20107;-41
2020/12/15 09:02:43;;;;;;;47.72;21.17;;;3.80;80.90;;;;;;5102339;28;20025;-41
2020/12/15 09:05:10;;;;;;;56.80;26.58;;;3.90;80.90;;;;;;5112492;28;20019;-39
2020/12/15 09:07:40;;;;;;;47.95;22.88;;;3.90;81.10;;;;;;5119305;28;20028;-38
2020/12/15 09:10:24;;;;;;;47.60;22.33;;;3.90;80.90;;;;;;5117341;28;20077;-38
2020/12/15 09:12:49;;;;;;;45.90;22.88;;;4.00;80.70;;;;;;5117706;28;20114;-37
2020/12/15 09:15:16;;;;;;;39.42;19.52;;;4.00;80.70;;;;;;5119197;28;20585;-38
2020/12/15 09:17:42;;;;;;;44.38;21.55;;;4.00;80.70;;;;;;5117472;28;20641;-39
2020/12/15 09:20:08;;;;;;;42.58;22.35;;;4.00;80.70;;;;;;5120197;28;20089;-38
2020/12/15 09:22:38;;;;;;;45.28;22.50;;;4.10;80.60;;;;;;5113619;28;20024;-37
2020/12/15 09:25:13;;;;;;;43.33;22.30;;;4.10;80.50;;;;;;5110904;28;20028;-38
2020/12/15 09:27:44;;;;;;;45.33;22.52;;;4.10;80.20;;;;;;5098629;28;20032;-38
2020/12/15 09:30:12;;;;;;;;;;;4.20;80.00;;;;;;5099242;28;20469;-38
2020/12/15 09:32:38;;;;;;;42.90;22.77;;;4.10;79.80;;;;;;5097849;28;19915;-37
2020/12/15 09:35:04;;;;;;;47.90;23.08;;;4.10;79.70;;;;;;5099551;28;20024;-38
2020/12/15 09:37:30;;;;;;;43.97;22.27;;;4.10;79.80;;;;;;5098208;28;20147;-37
2020/12/15 09:39:57;;;;;;;48.10;23.38;;;4.20;80.00;;;;;;5117117;28;20062;-38
2020/12/15 09:42:24;;;;;;;80.10;41.95;;;4.20;80.10;;;;;;5118471;28;20041;-38
2020/12/15 09:44:50;;;;;;;64.65;37.42;;;4.20;80.10;;;;;;5118442;28;20027;-38
2020/12/15 09:47:16;;;;;;;52.83;27.27;;;4.30;80.20;;;;;;5118077;28;20041;-37
2020/12/15 09:49:42;;;;;;;42.45;23.50;;;4.30;80.30;;;;;;5119050;28;20028;-38
2020/12/15 09:52:08;;;;;;;45.95;24.88;;;4.30;80.30;;;;;;5118646;28;20034;-37
2020/12/15 09:54:33;;;;;;;47.42;24.20;;;4.40;80.20;;;;;;5118558;28;20402;-39
2020/12/15 09:56:59;;;;;;;56.58;30.75;;;4.40;80.20;;;;;;5118831;28;20035;-37
2020/12/15 09:59:25;;;;;;;44.30;24.20;;;4.50;80.80;;;;;;5118936;28;20433;-39
2020/12/15 10:01:50;;;;;;;45.78;24.75;;;4.50;80.00;;;;;;5118534;28;20038;-37
2020/12/15 10:04:16;;;;;;;40.72;23.05;;;4.50;80.50;;;;;;5118798;28;20028;-38
2020/12/15 10:06:43;;;;;;;47.65;24.63;;;4.60;79.80;;;;;;5117097;28;20023;-37
2020/12/15 10:09:09;;;;;;;59.45;37.03;;;4.60;79.60;;;;;;5117124;28;20027;-37
2020/12/15 10:11:34;;;;;;;86.18;49.28;;;4.70;79.60;;;;;;5118663;28;20029;-37
2020/12/15 10:14:02;;;;;;;63.88;34.08;;;4.60;79.40;;;;;;5118427;28;20055;-39
2020/12/15 10:16:27;;;;;;;48.40;27.00;;;4.60;79.40;;;;;;5117726;28;20078;-37
2020/12/15 10:18:54;;;;;;;45.20;24.33;;;4.70;79.60;;;;;;5118730;28;20062;-39
2020/12/15 10:21:19;;;;;;;43.55;24.23;;;4.70;79.40;;;;;;5117952;28;20436;-38
2020/12/15 10:23:49;;;;;;;41.97;23.45;;;4.70;79.20;;;;;;5116974;28;20058;-39
2020/12/15 10:26:22;;;;;;;43.47;24.13;;;4.70;79.10;;;;;;5116304;28;20023;-38
2020/12/15 10:28:48;;;;;;;55.63;29.90;;;4.70;78.70;;;;;;5118035;28;20033;-38
2020/12/15 10:31:14;;;;;;;53.17;28.60;;;4.70;78.50;;;;;;5117487;28;20043;-38
2020/12/15 10:33:40;;;;;;;53.75;27.38;;;4.70;78.40;;;;;;5117938;28;20054;-38
2020/12/15 10:36:06;;;;;;;81.57;46.63;;;4.60;78.30;;;;;;5117071;28;20027;-38
2020/12/15 10:38:32;;;;;;;58.20;30.23;;;4.60;78.40;;;;;;5117599;28;20425;-38
2020/12/15 10:40:58;;;;;;;55.55;27.98;;;4.60;78.30;;;;;;5116853;28;20046;-38
2020/12/15 10:43:25;;;;;;;50.65;29.55;;;4.60;78.30;;;;;;5115970;28;20379;-38
2020/12/15 10:45:51;;;;;;;51.42;25.52;;;4.60;78.50;;;;;;5116006;28;20028;-38
2020/12/15 10:48:16;;;;;;;51.67;25.10;;;4.60;78.50;;;;;;5115846;28;20035;-39
2020/12/15 10:50:42;;;;;;;45.80;25.33;;;4.60;78.50;;;;;;5116230;28;20346;-38
2020/12/15 10:53:10;;;;;;;47.65;25.50;;;4.50;78.80;;;;;;5114978;28;20324;-39
2020/12/15 10:55:36;;;;;;;49.15;28.23;;;4.50;78.40;;;;;;5116123;28;20068;-38
2020/12/15 10:58:03;;;;;;;46.47;25.25;;;4.50;78.80;;;;;;5117163;28;20047;-38
2020/12/15 11:00:28;;;;;;;47.60;24.70;;;4.50;78.90;;;;;;5116731;28;20020;-38
2020/12/15 11:02:54;;;;;;;56.80;29.30;;;4.60;78.90;;;;;;5115940;28;20058;-39
2020/12/15 11:05:20;;;;;;;60.38;29.88;;;4.60;78.80;;;;;;5116716;28;20314;-39
2020/12/15 11:07:45;;;;;;;50.95;27.33;;;4.60;78.40;;;;;;5116406;28;20028;-39
2020/12/15 11:10:11;;;;;;;59.17;31.40;;;4.50;78.30;;;;;;5117698;28;20024;-38
2020/12/15 11:12:37;;;;;;;60.60;32.13;;;4.50;78.40;;;;;;5117394;28;20473;-38
2020/12/15 11:15:03;;;;;;;59.22;30.48;;;4.50;78.40;;;;;;5117333;28;20075;-40
2020/12/15 11:17:29;;;;;;;55.63;30.40;;;4.40;78.40;;;;;;5116456;28;20046;-37
2020/12/15 11:19:55;;;;;;;54.08;27.30;;;4.40;78.20;;;;;;5116704;28;20032;-40
2020/12/15 11:22:20;;;;;;;51.85;27.30;;;4.40;78.10;;;;;;5116896;28;20032;-39
2020/12/15 11:24:46;;;;;;;42.83;23.75;;;4.40;78.30;;;;;;5117109;28;20109;-39
2020/12/15 11:27:12;;;;;;;54.72;31.08;;;4.30;78.60;;;;;;5117369;28;20111;-38
2020/12/15 11:29:37;;;;;;;49.88;29.70;;;4.30;78.70;;;;;;5116250;28;20034;-40
2020/12/15 11:32:03;;;;;;;48.53;25.08;;;4.30;78.60;;;;;;5116457;28;20051;-38
2020/12/15 11:34:29;;;;;;;51.13;28.13;;;4.30;78.50;;;;;;5117159;28;20430;-39
2020/12/15 11:36:55;;;;;;;51.70;28.80;;;4.30;78.20;;;;;;5113193;28;20059;-38
2020/12/15 11:39:22;;;;;;;53.65;29.58;;;4.30;78.30;;;;;;5115240;27;20408;-38
2020/12/15 11:41:49;;;;;;;52.92;29.30;;;4.30;78.50;;;;;;5116294;28;20058;-38
2020/12/15 11:44:15;;;;;;;62.10;35.92;;;4.30;78.60;;;;;;5115717;28;20042;-38
2020/12/15 11:46:41;;;;;;;51.85;29.73;;;4.30;78.30;;;;;;5115411;28;20486;-38
2020/12/15 11:49:07;;;;;;;54.00;28.10;;;4.20;78.00;;;;;;5116006;28;20028;-39
2020/12/15 11:51:33;;;;;;;54.92;32.85;;;4.20;78.00;;;;;;5115471;28;20028;-37
2020/12/15 11:53:58;;;;;;;56.65;29.75;;;4.10;77.90;;;;;;5111031;28;20031;-39
2020/12/15 11:56:24;;;;;;;53.80;29.73;;;4.10;77.80;;;;;;5114904;28;20390;-37
2020/12/15 11:58:50;;;;;;;46.78;27.58;;;4.10;77.80;;;;;;5111012;28;20089;-39
2020/12/15 12:01:16;;;;;;;49.10;28.58;;;4.00;78.00;;;;;;5107487;28;20039;-37
2020/12/15 12:03:42;;;;;;;52.25;28.08;;;3.90;77.80;;;;;;5115353;28;20033;-39
2020/12/15 12:06:08;;;;;;;56.67;30.05;;;3.90;77.90;;;;;;5106985;28;20130;-38
2020/12/15 12:08:33;;;;;;;55.08;29.70;;;3.90;78.00;;;;;;5103748;28;20106;-39
2020/12/15 12:10:59;;;;;;;48.75;25.45;;;3.80;78.00;;;;;;5115475;28;20038;-37
2020/12/15 12:13:25;;;;;;;48.95;26.88;;;3.80;78.10;;;;;;5114943;28;20023;-39
2020/12/15 12:15:51;;;;;;;53.50;29.00;;;3.70;78.30;;;;;;5114117;28;20039;-38
2020/12/15 12:18:16;;;;;;;49.97;26.50;;;3.70;78.60;;;;;;5114026;28;20082;-39
2020/12/15 12:20:42;;;;;;;49.50;26.52;;;3.60;78.70;;;;;;5116806;28;20416;-37
2020/12/15 12:23:08;;;;;;;52.47;28.05;;;3.70;78.90;;;;;;5114784;28;20031;-37
2020/12/15 12:25:34;;;;;;;51.25;27.55;;;3.70;79.00;;;;;;5098195;28;20031;-38
2020/12/15 12:28:00;;;;;;;69.30;36.28;;;3.70;79.20;;;;;;5111298;28;20042;-38
2020/12/15 12:30:26;;;;;;;64.53;35.45;;;3.60;79.20;;;;;;5112285;28;20494;-38
2020/12/15 12:32:51;;;;;;;53.80;27.98;;;3.60;79.30;;;;;;5113657;28;20039;-37
2020/12/15 12:35:17;;;;;;;55.25;30.08;;;3.60;79.50;;;;;;5112424;28;20126;-39
2020/12/15 12:37:43;;;;;;;60.53;32.15;;;3.70;79.40;;;;;;5111990;28;20039;-39
2020/12/15 12:40:09;;;;;;;55.35;29.40;;;3.60;79.20;;;;;;5113336;28;20433;-38